sensor_id;sensor_type;location;lat;lon;timestamp;P1;durP1;ratioP1;P2;durP2;ratioP2
19780;SDS011;10050;55.492;13.506;2023-04-24T00:00:06;22.30;;;17.13;;
19780;SDS011;10050;55.492;13.506;2023-04-24T00:02:34;21.27;;;16.53;;
19780;SDS011;10050;55.492;13.506;2023-04-24T00:05:02;24.43;;;16.77;;
19780;SDS011;10050;55.492;13.506;2023-04-24T00:07:29;22.10;;;16.40;;
19780;SDS011;10050;55.492;13.506;2023-04-24T00:09:55;24.33;;;17.43;;
19780;SDS011;10050;55.492;13.506;2023-04-24T00:12:20;22.60;;;16.80;;
19780;SDS011;10050;55.492;13.506;2023-04-24T00:14:46;26.63;;;18.57;;
19780;SDS011;10050;55.492;13.506;2023-04-24T00:17:12;24.43;;;18.27;;
19780;SDS011;10050;55.492;13.506;2023-04-24T00:19:38;21.87;;;16.93;;
19780;SDS011;10050;55.492;13.506;2023-04-24T00:22:04;23.33;;;18.03;;
19780;SDS011;10050;55.492;13.506;2023-04-24T00:24:30;24.10;;;17.63;;
19780;SDS011;10050;55.492;13.506;2023-04-24T00:26:56;25.53;;;18.17;;
19780;SDS011;10050;55.492;13.506;2023-04-24T00:29:21;27.07;;;18.93;;
19780;SDS011;10050;55.492;13.506;2023-04-24T00:31:47;25.60;;;19.03;;
19780;SDS011;10050;55.492;13.506;2023-04-24T00:34:13;24.17;;;17.93;;
19780;SDS011;10050;55.492;13.506;2023-04-24T00:36:39;24.63;;;18.47;;
19780;SDS011;10050;55.492;13.506;2023-04-24T00:39:05;26.07;;;17.70;;
19780;SDS011;10050;55.492;13.506;2023-04-24T00:41:33;28.37;;;19.63;;
19780;SDS011;10050;55.492;13.506;2023-04-24T00:44:00;26.73;;;18.80;;
19780;SDS011;10050;55.492;13.506;2023-04-24T00:46:26;25.17;;;17.37;;
19780;SDS011;10050;55.492;13.506;2023-04-24T00:48:51;25.17;;;18.83;;
19780;SDS011;10050;55.492;13.506;2023-04-24T00:51:17;26.23;;;18.27;;
19780;SDS011;10050;55.492;13.506;2023-04-24T00:53:43;26.97;;;19.23;;
19780;SDS011;10050;55.492;13.506;2023-04-24T00:56:09;24.10;;;18.13;;
19780;SDS011;10050;55.492;13.506;2023-04-24T00:58:35;25.47;;;17.97;;
19780;SDS011;10050;55.492;13.506;2023-04-24T01:01:02;25.50;;;19.00;;
19780;SDS011;10050;55.492;13.506;2023-04-24T01:03:31;29.00;;;19.83;;
19780;SDS011;10050;55.492;13.506;2023-04-24T01:05:58;27.30;;;19.83;;
19780;SDS011;10050;55.492;13.506;2023-04-24T01:08:24;33.10;;;21.07;;
19780;SDS011;10050;55.492;13.506;2023-04-24T01:10:53;29.80;;;20.77;;
19780;SDS011;10050;55.492;13.506;2023-04-24T01:13:19;28.50;;;20.13;;
19780;SDS011;10050;55.492;13.506;2023-04-24T01:15:46;28.27;;;19.40;;
19780;SDS011;10050;55.492;13.506;2023-04-24T01:18:12;27.03;;;20.00;;
19780;SDS011;10050;55.492;13.506;2023-04-24T01:20:41;27.90;;;20.77;;
19780;SDS011;10050;55.492;13.506;2023-04-24T01:23:09;28.93;;;20.83;;
19780;SDS011;10050;55.492;13.506;2023-04-24T01:25:35;26.33;;;18.63;;
19780;SDS011;10050;55.492;13.506;2023-04-24T01:28:02;27.97;;;20.13;;
19780;SDS011;10050;55.492;13.506;2023-04-24T01:30:29;30.80;;;21.40;;
19780;SDS011;10050;55.492;13.506;2023-04-24T01:32:56;29.13;;;20.50;;
19780;SDS011;10050;55.492;13.506;2023-04-24T01:35:21;28.63;;;20.53;;
19780;SDS011;10050;55.492;13.506;2023-04-24T01:37:47;25.30;;;18.97;;
19780;SDS011;10050;55.492;13.506;2023-04-24T01:40:13;30.30;;;21.53;;
19780;SDS011;10050;55.492;13.506;2023-04-24T01:42:40;32.40;;;21.37;;
19780;SDS011;10050;55.492;13.506;2023-04-24T01:45:06;28.90;;;20.87;;
19780;SDS011;10050;55.492;13.506;2023-04-24T01:47:35;30.27;;;20.47;;
19780;SDS011;10050;55.492;13.506;2023-04-24T01:50:01;33.17;;;21.60;;
19780;SDS011;10050;55.492;13.506;2023-04-24T01:52:27;28.57;;;20.93;;
19780;SDS011;10050;55.492;13.506;2023-04-24T01:54:56;28.67;;;20.87;;
19780;SDS011;10050;55.492;13.506;2023-04-24T01:57:24;30.40;;;20.43;;
19780;SDS011;10050;55.492;13.506;2023-04-24T01:59:50;33.53;;;22.90;;
19780;SDS011;10050;55.492;13.506;2023-04-24T02:02:16;27.47;;;20.43;;
19780;SDS011;10050;55.492;13.506;2023-04-24T02:04:42;28.53;;;18.90;;
19780;SDS011;10050;55.492;13.506;2023-04-24T02:07:08;26.50;;;19.60;;
19780;SDS011;10050;55.492;13.506;2023-04-24T02:09:33;25.60;;;19.07;;
19780;SDS011;10050;55.492;13.506;2023-04-24T02:11:59;27.87;;;20.50;;
19780;SDS011;10050;55.492;13.506;2023-04-24T02:14:25;27.30;;;19.80;;
19780;SDS011;10050;55.492;13.506;2023-04-24T02:16:51;31.23;;;20.77;;
19780;SDS011;10050;55.492;13.506;2023-04-24T02:19:16;29.03;;;21.00;;
19780;SDS011;10050;55.492;13.506;2023-04-24T02:21:42;31.03;;;21.07;;
19780;SDS011;10050;55.492;13.506;2023-04-24T02:24:08;28.43;;;20.03;;
19780;SDS011;10050;55.492;13.506;2023-04-24T02:26:33;27.90;;;20.67;;
19780;SDS011;10050;55.492;13.506;2023-04-24T02:29:02;26.60;;;18.97;;
19780;SDS011;10050;55.492;13.506;2023-04-24T02:31:27;27.67;;;20.27;;
19780;SDS011;10050;55.492;13.506;2023-04-24T02:33:53;28.43;;;20.77;;
19780;SDS011;10050;55.492;13.506;2023-04-24T02:36:18;31.80;;;22.47;;
19780;SDS011;10050;55.492;13.506;2023-04-24T02:38:44;31.60;;;22.13;;
19780;SDS011;10050;55.492;13.506;2023-04-24T02:41:10;31.77;;;21.70;;
19780;SDS011;10050;55.492;13.506;2023-04-24T02:43:36;34.43;;;22.70;;
19780;SDS011;10050;55.492;13.506;2023-04-24T02:46:01;35.53;;;22.70;;
19780;SDS011;10050;55.492;13.506;2023-04-24T02:48:27;34.80;;;23.47;;
19780;SDS011;10050;55.492;13.506;2023-04-24T02:50:53;35.27;;;23.33;;
19780;SDS011;10050;55.492;13.506;2023-04-24T02:53:19;34.70;;;23.03;;
19780;SDS011;10050;55.492;13.506;2023-04-24T02:55:45;38.50;;;24.40;;
19780;SDS011;10050;55.492;13.506;2023-04-24T02:58:11;44.40;;;24.40;;
19780;SDS011;10050;55.492;13.506;2023-04-24T03:00:37;48.43;;;25.40;;
19780;SDS011;10050;55.492;13.506;2023-04-24T03:03:03;44.50;;;25.10;;
19780;SDS011;10050;55.492;13.506;2023-04-24T03:05:30;49.37;;;25.60;;
19780;SDS011;10050;55.492;13.506;2023-04-24T03:07:56;55.73;;;24.33;;
19780;SDS011;10050;55.492;13.506;2023-04-24T03:10:22;118.80;;;27.47;;
19780;SDS011;10050;55.492;13.506;2023-04-24T03:12:47;80.17;;;25.77;;
19780;SDS011;10050;55.492;13.506;2023-04-24T03:15:13;171.20;;;25.67;;
19780;SDS011;10050;55.492;13.506;2023-04-24T03:17:39;167.80;;;25.17;;
19780;SDS011;10050;55.492;13.506;2023-04-24T03:20:05;78.97;;;21.60;;
19780;SDS011;10050;55.492;13.506;2023-04-24T03:22:31;184.10;;;25.43;;
19780;SDS011;10050;55.492;13.506;2023-04-24T03:24:57;187.80;;;24.97;;
19780;SDS011;10050;55.492;13.506;2023-04-24T03:27:23;210.90;;;26.20;;
19780;SDS011;10050;55.492;13.506;2023-04-24T03:29:49;177.63;;;25.20;;
19780;SDS011;10050;55.492;13.506;2023-04-24T03:32:18;215.43;;;26.17;;
19780;SDS011;10050;55.492;13.506;2023-04-24T03:34:44;112.40;;;22.27;;
19780;SDS011;10050;55.492;13.506;2023-04-24T03:37:10;110.67;;;21.37;;
19780;SDS011;10050;55.492;13.506;2023-04-24T03:39:35;92.47;;;20.97;;
19780;SDS011;10050;55.492;13.506;2023-04-24T03:42:01;63.87;;;19.13;;
19780;SDS011;10050;55.492;13.506;2023-04-24T03:44:27;79.83;;;19.23;;
19780;SDS011;10050;55.492;13.506;2023-04-24T03:46:53;62.00;;;19.13;;
19780;SDS011;10050;55.492;13.506;2023-04-24T03:49:18;97.10;;;20.20;;
19780;SDS011;10050;55.492;13.506;2023-04-24T03:51:44;57.50;;;18.73;;
19780;SDS011;10050;55.492;13.506;2023-04-24T03:54:10;95.27;;;19.40;;
19780;SDS011;10050;55.492;13.506;2023-04-24T03:56:35;83.70;;;19.20;;
19780;SDS011;10050;55.492;13.506;2023-04-24T03:59:01;99.67;;;20.70;;
19780;SDS011;10050;55.492;13.506;2023-04-24T04:01:27;52.13;;;18.97;;
19780;SDS011;10050;55.492;13.506;2023-04-24T04:03:53;63.90;;;19.03;;
19780;SDS011;10050;55.492;13.506;2023-04-24T04:06:18;53.07;;;18.07;;
19780;SDS011;10050;55.492;13.506;2023-04-24T04:08:46;95.20;;;19.83;;
19780;SDS011;10050;55.492;13.506;2023-04-24T04:11:12;75.80;;;19.90;;
19780;SDS011;10050;55.492;13.506;2023-04-24T04:13:37;57.07;;;18.67;;
19780;SDS011;10050;55.492;13.506;2023-04-24T04:16:03;54.50;;;18.30;;
19780;SDS011;10050;55.492;13.506;2023-04-24T04:18:29;56.33;;;18.83;;
19780;SDS011;10050;55.492;13.506;2023-04-24T04:20:54;124.13;;;22.40;;
19780;SDS011;10050;55.492;13.506;2023-04-24T04:23:21;71.40;;;19.77;;
19780;SDS011;10050;55.492;13.506;2023-04-24T04:25:47;70.70;;;21.10;;
19780;SDS011;10050;55.492;13.506;2023-04-24T04:28:13;117.77;;;22.23;;
19780;SDS011;10050;55.492;13.506;2023-04-24T04:30:39;94.80;;;22.40;;
19780;SDS011;10050;55.492;13.506;2023-04-24T04:33:05;86.97;;;21.00;;
19780;SDS011;10050;55.492;13.506;2023-04-24T04:35:30;163.60;;;24.67;;
19780;SDS011;10050;55.492;13.506;2023-04-24T04:37:56;101.10;;;23.30;;
19780;SDS011;10050;55.492;13.506;2023-04-24T04:40:23;76.93;;;22.17;;
19780;SDS011;10050;55.492;13.506;2023-04-24T04:42:49;83.97;;;22.83;;
19780;SDS011;10050;55.492;13.506;2023-04-24T04:45:18;67.90;;;22.33;;
19780;SDS011;10050;55.492;13.506;2023-04-24T04:47:43;58.47;;;22.30;;
19780;SDS011;10050;55.492;13.506;2023-04-24T04:50:09;63.13;;;21.00;;
19780;SDS011;10050;55.492;13.506;2023-04-24T04:52:35;75.97;;;20.83;;
19780;SDS011;10050;55.492;13.506;2023-04-24T04:55:01;69.10;;;20.43;;
19780;SDS011;10050;55.492;13.506;2023-04-24T04:57:27;65.87;;;19.93;;
19780;SDS011;10050;55.492;13.506;2023-04-24T04:59:53;48.07;;;19.73;;
19780;SDS011;10050;55.492;13.506;2023-04-24T05:02:18;48.37;;;20.90;;
19780;SDS011;10050;55.492;13.506;2023-04-24T05:04:44;48.90;;;21.43;;
19780;SDS011;10050;55.492;13.506;2023-04-24T05:07:10;39.97;;;20.53;;
19780;SDS011;10050;55.492;13.506;2023-04-24T05:09:36;47.87;;;22.47;;
19780;SDS011;10050;55.492;13.506;2023-04-24T05:12:02;41.87;;;21.10;;
19780;SDS011;10050;55.492;13.506;2023-04-24T05:14:28;36.37;;;20.10;;
19780;SDS011;10050;55.492;13.506;2023-04-24T05:16:53;35.77;;;18.13;;
19780;SDS011;10050;55.492;13.506;2023-04-24T05:19:19;33.63;;;17.57;;
19780;SDS011;10050;55.492;13.506;2023-04-24T05:21:45;28.30;;;17.07;;
19780;SDS011;10050;55.492;13.506;2023-04-24T05:24:10;24.57;;;15.23;;
19780;SDS011;10050;55.492;13.506;2023-04-24T05:26:36;25.00;;;14.90;;
19780;SDS011;10050;55.492;13.506;2023-04-24T05:29:02;24.70;;;14.60;;
19780;SDS011;10050;55.492;13.506;2023-04-24T05:31:29;24.50;;;13.03;;
19780;SDS011;10050;55.492;13.506;2023-04-24T05:33:54;19.90;;;12.20;;
19780;SDS011;10050;55.492;13.506;2023-04-24T05:36:20;16.47;;;11.23;;
19780;SDS011;10050;55.492;13.506;2023-04-24T05:38:46;14.57;;;10.30;;
19780;SDS011;10050;55.492;13.506;2023-04-24T05:41:11;15.40;;;10.07;;
19780;SDS011;10050;55.492;13.506;2023-04-24T05:43:37;13.00;;;9.37;;
19780;SDS011;10050;55.492;13.506;2023-04-24T05:46:06;12.03;;;9.07;;
19780;SDS011;10050;55.492;13.506;2023-04-24T05:48:31;15.57;;;8.83;;
19780;SDS011;10050;55.492;13.506;2023-04-24T05:50:57;10.30;;;8.53;;
19780;SDS011;10050;55.492;13.506;2023-04-24T05:53:23;11.73;;;8.40;;
19780;SDS011;10050;55.492;13.506;2023-04-24T05:55:48;10.00;;;7.73;;
19780;SDS011;10050;55.492;13.506;2023-04-24T05:58:14;9.70;;;7.83;;
19780;SDS011;10050;55.492;13.506;2023-04-24T06:00:40;9.20;;;7.57;;
19780;SDS011;10050;55.492;13.506;2023-04-24T06:03:07;9.97;;;7.57;;
19780;SDS011;10050;55.492;13.506;2023-04-24T06:05:33;9.70;;;8.20;;
19780;SDS011;10050;55.492;13.506;2023-04-24T06:07:59;11.13;;;7.53;;
19780;SDS011;10050;55.492;13.506;2023-04-24T06:10:25;9.17;;;7.57;;
19780;SDS011;10050;55.492;13.506;2023-04-24T06:12:51;7.63;;;6.83;;
19780;SDS011;10050;55.492;13.506;2023-04-24T06:15:17;9.20;;;7.20;;
19780;SDS011;10050;55.492;13.506;2023-04-24T06:17:42;10.03;;;6.80;;
19780;SDS011;10050;55.492;13.506;2023-04-24T06:20:08;9.23;;;6.80;;
19780;SDS011;10050;55.492;13.506;2023-04-24T06:22:35;8.03;;;7.27;;
19780;SDS011;10050;55.492;13.506;2023-04-24T06:25:01;7.73;;;6.73;;
19780;SDS011;10050;55.492;13.506;2023-04-24T06:27:27;8.00;;;7.20;;
19780;SDS011;10050;55.492;13.506;2023-04-24T06:29:52;7.57;;;6.77;;
19780;SDS011;10050;55.492;13.506;2023-04-24T06:32:22;8.00;;;6.80;;
19780;SDS011;10050;55.492;13.506;2023-04-24T06:34:49;8.30;;;6.73;;
19780;SDS011;10050;55.492;13.506;2023-04-24T06:37:16;8.03;;;6.83;;
19780;SDS011;10050;55.492;13.506;2023-04-24T06:39:42;7.57;;;6.53;;
19780;SDS011;10050;55.492;13.506;2023-04-24T06:42:07;7.27;;;6.43;;
19780;SDS011;10050;55.492;13.506;2023-04-24T06:44:34;9.60;;;6.77;;
19780;SDS011;10050;55.492;13.506;2023-04-24T06:47:05;10.40;;;6.23;;
19780;SDS011;10050;55.492;13.506;2023-04-24T06:49:32;6.50;;;5.87;;
19780;SDS011;10050;55.492;13.506;2023-04-24T06:51:57;5.40;;;4.87;;
19780;SDS011;10050;55.492;13.506;2023-04-24T06:54:23;5.87;;;5.23;;
19780;SDS011;10050;55.492;13.506;2023-04-24T06:56:49;5.37;;;4.87;;
19780;SDS011;10050;55.492;13.506;2023-04-24T06:59:16;6.60;;;4.63;;
19780;SDS011;10050;55.492;13.506;2023-04-24T07:01:41;5.50;;;5.00;;
19780;SDS011;10050;55.492;13.506;2023-04-24T07:04:07;5.23;;;4.73;;
19780;SDS011;10050;55.492;13.506;2023-04-24T07:06:33;5.33;;;4.83;;
19780;SDS011;10050;55.492;13.506;2023-04-24T07:09:00;5.33;;;4.83;;
19780;SDS011;10050;55.492;13.506;2023-04-24T07:11:26;6.40;;;5.37;;
19780;SDS011;10050;55.492;13.506;2023-04-24T07:13:54;5.83;;;5.33;;
19780;SDS011;10050;55.492;13.506;2023-04-24T07:16:20;6.60;;;6.00;;
19780;SDS011;10050;55.492;13.506;2023-04-24T07:18:46;6.50;;;5.90;;
19780;SDS011;10050;55.492;13.506;2023-04-24T07:21:11;7.93;;;6.07;;
19780;SDS011;10050;55.492;13.506;2023-04-24T07:23:37;7.10;;;5.80;;
19780;SDS011;10050;55.492;13.506;2023-04-24T07:26:03;7.50;;;5.43;;
19780;SDS011;10050;55.492;13.506;2023-04-24T07:28:28;6.03;;;5.43;;
19780;SDS011;10050;55.492;13.506;2023-04-24T07:30:57;5.60;;;5.20;;
19780;SDS011;10050;55.492;13.506;2023-04-24T07:33:24;6.17;;;5.57;;
19780;SDS011;10050;55.492;13.506;2023-04-24T07:35:51;6.57;;;5.83;;
19780;SDS011;10050;55.492;13.506;2023-04-24T07:38:17;6.80;;;5.77;;
19780;SDS011;10050;55.492;13.506;2023-04-24T07:40:46;7.03;;;5.27;;
19780;SDS011;10050;55.492;13.506;2023-04-24T07:43:12;5.67;;;5.17;;
19780;SDS011;10050;55.492;13.506;2023-04-24T07:45:37;6.20;;;5.70;;
19780;SDS011;10050;55.492;13.506;2023-04-24T07:48:04;9.70;;;5.60;;
19780;SDS011;10050;55.492;13.506;2023-04-24T07:50:30;8.63;;;5.53;;
19780;SDS011;10050;55.492;13.506;2023-04-24T07:52:56;6.57;;;5.30;;
19780;SDS011;10050;55.492;13.506;2023-04-24T07:55:21;6.50;;;5.40;;
19780;SDS011;10050;55.492;13.506;2023-04-24T07:57:47;7.00;;;5.83;;
19780;SDS011;10050;55.492;13.506;2023-04-24T08:00:13;7.67;;;5.27;;
19780;SDS011;10050;55.492;13.506;2023-04-24T08:02:39;7.47;;;6.60;;
19780;SDS011;10050;55.492;13.506;2023-04-24T08:05:05;7.27;;;6.40;;
19780;SDS011;10050;55.492;13.506;2023-04-24T08:07:31;8.80;;;6.53;;
19780;SDS011;10050;55.492;13.506;2023-04-24T08:09:57;9.17;;;7.07;;
19780;SDS011;10050;55.492;13.506;2023-04-24T08:12:24;10.90;;;7.27;;
19780;SDS011;10050;55.492;13.506;2023-04-24T08:14:50;10.17;;;7.97;;
19780;SDS011;10050;55.492;13.506;2023-04-24T08:17:16;9.90;;;7.17;;
19780;SDS011;10050;55.492;13.506;2023-04-24T08:19:42;9.67;;;7.90;;
19780;SDS011;10050;55.492;13.506;2023-04-24T08:22:12;9.63;;;7.60;;
19780;SDS011;10050;55.492;13.506;2023-04-24T08:24:38;8.43;;;7.50;;
19780;SDS011;10050;55.492;13.506;2023-04-24T08:27:04;7.53;;;6.77;;
19780;SDS011;10050;55.492;13.506;2023-04-24T08:29:30;9.40;;;7.00;;
19780;SDS011;10050;55.492;13.506;2023-04-24T08:31:55;9.83;;;7.20;;
19780;SDS011;10050;55.492;13.506;2023-04-24T08:34:21;9.30;;;7.70;;
19780;SDS011;10050;55.492;13.506;2023-04-24T08:36:47;10.03;;;7.13;;
19780;SDS011;10050;55.492;13.506;2023-04-24T08:39:13;7.40;;;6.70;;
19780;SDS011;10050;55.492;13.506;2023-04-24T08:41:40;7.37;;;6.67;;
19780;SDS011;10050;55.492;13.506;2023-04-24T08:44:07;10.87;;;6.67;;
19780;SDS011;10050;55.492;13.506;2023-04-24T08:46:37;9.03;;;7.37;;
19780;SDS011;10050;55.492;13.506;2023-04-24T08:49:04;12.07;;;7.80;;
19780;SDS011;10050;55.492;13.506;2023-04-24T08:51:30;8.63;;;7.73;;
19780;SDS011;10050;55.492;13.506;2023-04-24T08:53:56;11.90;;;7.87;;
19780;SDS011;10050;55.492;13.506;2023-04-24T08:56:22;7.93;;;7.00;;
19780;SDS011;10050;55.492;13.506;2023-04-24T08:58:53;8.20;;;7.50;;
19780;SDS011;10050;55.492;13.506;2023-04-24T09:01:19;8.87;;;7.90;;
19780;SDS011;10050;55.492;13.506;2023-04-24T09:03:47;8.67;;;7.77;;
19780;SDS011;10050;55.492;13.506;2023-04-24T09:06:14;7.63;;;6.93;;
19780;SDS011;10050;55.492;13.506;2023-04-24T09:08:42;9.77;;;7.10;;
19780;SDS011;10050;55.492;13.506;2023-04-24T09:11:10;7.50;;;6.70;;
19780;SDS011;10050;55.492;13.506;2023-04-24T09:13:37;7.57;;;6.60;;
19780;SDS011;10050;55.492;13.506;2023-04-24T09:16:03;9.50;;;7.50;;
19780;SDS011;10050;55.492;13.506;2023-04-24T09:18:29;7.00;;;6.30;;
19780;SDS011;10050;55.492;13.506;2023-04-24T09:21:06;7.90;;;7.20;;
19780;SDS011;10050;55.492;13.506;2023-04-24T09:23:33;8.23;;;7.40;;
19780;SDS011;10050;55.492;13.506;2023-04-24T09:25:59;9.53;;;6.97;;
19780;SDS011;10050;55.492;13.506;2023-04-24T09:28:29;7.83;;;6.27;;
19780;SDS011;10050;55.492;13.506;2023-04-24T09:33:29;6.77;;;5.80;;
19780;SDS011;10050;55.492;13.506;2023-04-24T09:35:54;6.70;;;6.10;;
19780;SDS011;10050;55.492;13.506;2023-04-24T09:38:30;8.47;;;6.77;;
19780;SDS011;10050;55.492;13.506;2023-04-24T09:40:58;9.60;;;6.63;;
19780;SDS011;10050;55.492;13.506;2023-04-24T09:43:32;7.73;;;6.33;;
19780;SDS011;10050;55.492;13.506;2023-04-24T09:45:58;9.60;;;6.57;;
19780;SDS011;10050;55.492;13.506;2023-04-24T09:48:35;7.60;;;6.80;;
19780;SDS011;10050;55.492;13.506;2023-04-24T09:51:02;7.57;;;6.83;;
19780;SDS011;10050;55.492;13.506;2023-04-24T09:53:31;8.03;;;7.23;;
19780;SDS011;10050;55.492;13.506;2023-04-24T09:56:06;7.93;;;6.90;;
19780;SDS011;10050;55.492;13.506;2023-04-24T09:58:34;8.57;;;6.90;;
19780;SDS011;10050;55.492;13.506;2023-04-24T10:01:00;8.47;;;7.57;;
19780;SDS011;10050;55.492;13.506;2023-04-24T10:03:27;7.77;;;6.97;;
19780;SDS011;10050;55.492;13.506;2023-04-24T10:05:58;9.33;;;7.30;;
19780;SDS011;10050;55.492;13.506;2023-04-24T10:08:27;8.10;;;6.80;;
19780;SDS011;10050;55.492;13.506;2023-04-24T10:10:59;10.80;;;7.70;;
19780;SDS011;10050;55.492;13.506;2023-04-24T10:13:25;7.13;;;6.43;;
19780;SDS011;10050;55.492;13.506;2023-04-24T10:15:51;7.30;;;6.60;;
19780;SDS011;10050;55.492;13.506;2023-04-24T10:18:16;8.70;;;7.07;;
19780;SDS011;10050;55.492;13.506;2023-04-24T10:20:42;9.43;;;7.03;;
19780;SDS011;10050;55.492;13.506;2023-04-24T10:23:08;7.73;;;6.77;;
19780;SDS011;10050;55.492;13.506;2023-04-24T10:25:35;8.80;;;7.00;;
19780;SDS011;10050;55.492;13.506;2023-04-24T10:28:04;7.43;;;6.60;;
19780;SDS011;10050;55.492;13.506;2023-04-24T10:30:31;7.57;;;6.37;;
19780;SDS011;10050;55.492;13.506;2023-04-24T10:33:04;9.77;;;6.37;;
19780;SDS011;10050;55.492;13.506;2023-04-24T10:35:36;8.00;;;7.30;;
19780;SDS011;10050;55.492;13.506;2023-04-24T10:38:08;6.97;;;6.30;;
19780;SDS011;10050;55.492;13.506;2023-04-24T10:40:37;7.37;;;6.67;;
19780;SDS011;10050;55.492;13.506;2023-04-24T10:43:06;7.40;;;6.60;;
19780;SDS011;10050;55.492;13.506;2023-04-24T10:45:34;8.57;;;7.07;;
19780;SDS011;10050;55.492;13.506;2023-04-24T10:48:04;10.17;;;7.63;;
19780;SDS011;10050;55.492;13.506;2023-04-24T10:50:47;8.17;;;7.30;;
19780;SDS011;10050;55.492;13.506;2023-04-24T10:53:21;8.97;;;7.73;;
19780;SDS011;10050;55.492;13.506;2023-04-24T10:55:50;10.40;;;7.83;;
19780;SDS011;10050;55.492;13.506;2023-04-24T10:58:21;7.53;;;6.77;;
19780;SDS011;10050;55.492;13.506;2023-04-24T11:00:57;8.20;;;7.20;;
19780;SDS011;10050;55.492;13.506;2023-04-24T11:03:25;8.93;;;7.33;;
19780;SDS011;10050;55.492;13.506;2023-04-24T11:05:54;7.27;;;6.57;;
19780;SDS011;10050;55.492;13.506;2023-04-24T11:08:23;7.27;;;6.30;;
19780;SDS011;10050;55.492;13.506;2023-04-24T11:11:01;9.57;;;7.03;;
19780;SDS011;10050;55.492;13.506;2023-04-24T11:16:26;6.93;;;6.23;;
19780;SDS011;10050;55.492;13.506;2023-04-24T11:19:04;8.43;;;6.53;;
19780;SDS011;10050;55.492;13.506;2023-04-24T11:21:40;9.17;;;7.13;;
19780;SDS011;10050;55.492;13.506;2023-04-24T11:29:42;10.17;;;8.23;;
19780;SDS011;10050;55.492;13.506;2023-04-24T11:32:15;12.20;;;8.23;;
19780;SDS011;10050;55.492;13.506;2023-04-24T11:34:47;12.60;;;9.50;;
19780;SDS011;10050;55.492;13.506;2023-04-24T11:37:13;9.73;;;8.73;;
19780;SDS011;10050;55.492;13.506;2023-04-24T11:39:40;9.60;;;8.60;;
19780;SDS011;10050;55.492;13.506;2023-04-24T11:42:06;10.47;;;8.30;;
19780;SDS011;10050;55.492;13.506;2023-04-24T11:44:36;11.17;;;7.67;;
19780;SDS011;10050;55.492;13.506;2023-04-24T11:47:05;9.93;;;7.77;;
19780;SDS011;10050;55.492;13.506;2023-04-24T11:49:32;9.33;;;8.37;;
19780;SDS011;10050;55.492;13.506;2023-04-24T11:51:57;14.17;;;9.50;;
19780;SDS011;10050;55.492;13.506;2023-04-24T11:54:25;13.73;;;9.53;;
19780;SDS011;10050;55.492;13.506;2023-04-24T11:56:51;11.17;;;9.57;;
19780;SDS011;10050;55.492;13.506;2023-04-24T11:59:17;16.43;;;10.03;;
19780;SDS011;10050;55.492;13.506;2023-04-24T12:01:46;15.13;;;10.50;;
19780;SDS011;10050;55.492;13.506;2023-04-24T12:04:12;18.17;;;11.67;;
19780;SDS011;10050;55.492;13.506;2023-04-24T12:06:39;15.10;;;10.73;;
19780;SDS011;10050;55.492;13.506;2023-04-24T12:09:04;16.57;;;11.73;;
19780;SDS011;10050;55.492;13.506;2023-04-24T12:11:31;15.50;;;12.07;;
19780;SDS011;10050;55.492;13.506;2023-04-24T12:13:57;16.40;;;11.20;;
19780;SDS011;10050;55.492;13.506;2023-04-24T12:16:22;15.10;;;11.67;;
19780;SDS011;10050;55.492;13.506;2023-04-24T12:18:51;22.60;;;12.07;;
19780;SDS011;10050;55.492;13.506;2023-04-24T12:21:22;13.40;;;11.20;;
19780;SDS011;10050;55.492;13.506;2023-04-24T12:23:53;15.97;;;11.60;;
19780;SDS011;10050;55.492;13.506;2023-04-24T12:26:19;16.97;;;10.87;;
19780;SDS011;10050;55.492;13.506;2023-04-24T12:28:47;14.07;;;11.67;;
19780;SDS011;10050;55.492;13.506;2023-04-24T12:31:14;17.23;;;11.53;;
19780;SDS011;10050;55.492;13.506;2023-04-24T12:33:41;15.20;;;12.00;;
19780;SDS011;10050;55.492;13.506;2023-04-24T12:36:09;15.13;;;11.97;;
19780;SDS011;10050;55.492;13.506;2023-04-24T12:38:37;19.03;;;12.77;;
19780;SDS011;10050;55.492;13.506;2023-04-24T12:41:07;18.00;;;12.70;;
19780;SDS011;10050;55.492;13.506;2023-04-24T12:43:34;15.07;;;12.53;;
19780;SDS011;10050;55.492;13.506;2023-04-24T12:46:00;17.50;;;13.23;;
19780;SDS011;10050;55.492;13.506;2023-04-24T12:48:26;18.17;;;12.50;;
19780;SDS011;10050;55.492;13.506;2023-04-24T12:50:52;19.50;;;12.47;;
19780;SDS011;10050;55.492;13.506;2023-04-24T12:53:18;17.57;;;12.33;;
19780;SDS011;10050;55.492;13.506;2023-04-24T12:55:44;16.43;;;12.27;;
19780;SDS011;10050;55.492;13.506;2023-04-24T12:58:12;19.00;;;12.37;;
19780;SDS011;10050;55.492;13.506;2023-04-24T13:00:38;19.80;;;13.00;;
19780;SDS011;10050;55.492;13.506;2023-04-24T13:03:04;16.80;;;13.03;;
19780;SDS011;10050;55.492;13.506;2023-04-24T13:05:30;16.90;;;12.73;;
19780;SDS011;10050;55.492;13.506;2023-04-24T13:07:56;18.50;;;13.53;;
19780;SDS011;10050;55.492;13.506;2023-04-24T13:10:22;16.23;;;13.03;;
19780;SDS011;10050;55.492;13.506;2023-04-24T13:12:48;17.70;;;13.73;;
19780;SDS011;10050;55.492;13.506;2023-04-24T13:15:13;17.40;;;13.40;;
19780;SDS011;10050;55.492;13.506;2023-04-24T13:17:39;21.73;;;13.63;;
19780;SDS011;10050;55.492;13.506;2023-04-24T13:20:05;22.93;;;12.70;;
19780;SDS011;10050;55.492;13.506;2023-04-24T13:22:31;17.77;;;13.53;;
19780;SDS011;10050;55.492;13.506;2023-04-24T13:24:57;18.60;;;13.50;;
19780;SDS011;10050;55.492;13.506;2023-04-24T13:27:22;18.67;;;13.40;;
19780;SDS011;10050;55.492;13.506;2023-04-24T13:29:48;16.60;;;13.27;;
19780;SDS011;10050;55.492;13.506;2023-04-24T13:32:14;15.70;;;13.30;;
19780;SDS011;10050;55.492;13.506;2023-04-24T13:34:39;20.17;;;13.73;;
19780;SDS011;10050;55.492;13.506;2023-04-24T13:37:05;16.27;;;13.17;;
19780;SDS011;10050;55.492;13.506;2023-04-24T13:39:32;17.80;;;14.10;;
19780;SDS011;10050;55.492;13.506;2023-04-24T13:41:58;17.87;;;13.57;;
19780;SDS011;10050;55.492;13.506;2023-04-24T13:44:24;17.67;;;13.23;;
19780;SDS011;10050;55.492;13.506;2023-04-24T13:46:51;15.57;;;12.17;;
19780;SDS011;10050;55.492;13.506;2023-04-24T13:49:19;14.57;;;12.57;;
19780;SDS011;10050;55.492;13.506;2023-04-24T13:51:46;13.57;;;11.00;;
19780;SDS011;10050;55.492;13.506;2023-04-24T13:54:12;11.97;;;10.77;;
19780;SDS011;10050;55.492;13.506;2023-04-24T13:56:38;14.57;;;11.80;;
19780;SDS011;10050;55.492;13.506;2023-04-24T13:59:05;14.30;;;11.67;;
19780;SDS011;10050;55.492;13.506;2023-04-24T14:01:31;12.73;;;10.67;;
19780;SDS011;10050;55.492;13.506;2023-04-24T14:03:57;15.23;;;11.10;;
19780;SDS011;10050;55.492;13.506;2023-04-24T14:06:22;13.63;;;10.07;;
19780;SDS011;10050;55.492;13.506;2023-04-24T14:08:48;11.57;;;10.37;;
19780;SDS011;10050;55.492;13.506;2023-04-24T14:11:15;11.07;;;9.70;;
19780;SDS011;10050;55.492;13.506;2023-04-24T14:13:41;12.73;;;10.27;;
19780;SDS011;10050;55.492;13.506;2023-04-24T14:16:08;11.87;;;10.30;;
19780;SDS011;10050;55.492;13.506;2023-04-24T14:18:34;7.97;;;6.40;;
19780;SDS011;10050;55.492;13.506;2023-04-24T14:21:01;7.73;;;6.10;;
19780;SDS011;10050;55.492;13.506;2023-04-24T14:23:27;6.40;;;5.80;;
19780;SDS011;10050;55.492;13.506;2023-04-24T14:25:53;6.10;;;5.50;;